createdAt,value
2023-10-07T00:01:00.905Z,99447.19
2023-10-07T00:03:27.767Z,99444.97
2023-10-07T00:06:01.604Z,99441.69
2023-10-07T00:08:29.436Z,99443.69
2023-10-07T00:11:00.024Z,99445.47
2023-10-07T00:13:35.601Z,99448.13
2023-10-07T00:16:02.305Z,99442.78
2023-10-07T00:18:29.317Z,99436.47
2023-10-07T00:20:56.765Z,99434.00
2023-10-07T00:23:27.407Z,99430.84
2023-10-07T00:25:56.127Z,99427.06
2023-10-07T00:28:33.821Z,99434.53
2023-10-07T00:31:04.693Z,99426.75
2023-10-07T00:33:38.944Z,99424.59
2023-10-07T00:36:06.833Z,99426.72
2023-10-07T00:38:39.093Z,99429.16
2023-10-07T00:41:05.852Z,99424.84
2023-10-07T00:43:32.587Z,99431.56
2023-10-07T00:46:12.546Z,99424.94
2023-10-07T00:48:44.351Z,99426.34
2023-10-07T00:51:13.496Z,99430.28
2023-10-07T00:53:46.437Z,99423.19
2023-10-07T00:56:17.688Z,99425.25
2023-10-07T00:58:48.149Z,99424.97
2023-10-07T01:01:15.844Z,99412.25
2023-10-07T01:03:57.187Z,99414.63
2023-10-07T01:06:26.819Z,99418.88
2023-10-07T01:09:08.993Z,99413.91
2023-10-07T01:11:41.192Z,99412.19
2023-10-07T01:14:13.144Z,99405.09
2023-10-07T01:16:44.295Z,99406.22
2023-10-07T01:19:13.372Z,99404.31
2023-10-07T01:21:57.132Z,99407.91
2023-10-07T01:24:45.173Z,99401.09
2023-10-07T01:27:30.141Z,99391.13
2023-10-07T01:30:08.291Z,99384.31
2023-10-07T01:32:35.261Z,99379.91
2023-10-07T01:35:12.463Z,99388.66
2023-10-07T01:38:01.114Z,99390.72
2023-10-07T01:40:44.700Z,99385.44
2023-10-07T01:43:11.221Z,99381.03
2023-10-07T01:45:40.966Z,99379.91
2023-10-07T01:48:10.993Z,99393.13
2023-10-07T01:50:41.064Z,99388.66
2023-10-07T01:53:12.625Z,99395.47
2023-10-07T01:55:44.236Z,99385.00
2023-10-07T01:58:14.719Z,99390.06
2023-10-07T02:00:45.797Z,99403.16
2023-10-07T02:03:25.069Z,99396.59
2023-10-07T02:05:53.268Z,99396.69
2023-10-07T02:08:24.915Z,99392.34
2023-10-07T02:10:59.871Z,99395.47
2023-10-07T02:13:31.137Z,99391.03
2023-10-07T02:15:58.092Z,99392.22
2023-10-07T02:18:28.799Z,99395.31
2023-10-07T02:21:14.928Z,99397.44
2023-10-07T02:23:42.148Z,99400.06
2023-10-07T02:26:16.123Z,99394.84
2023-10-07T02:28:47.650Z,99398.00
2023-10-07T02:31:18.582Z,99399.41
2023-10-07T02:33:47.067Z,99403.06
2023-10-07T02:36:28.996Z,99398.53
2023-10-07T02:38:58.260Z,99396.31
2023-10-07T02:41:32.250Z,99406.09
2023-10-07T02:44:10.074Z,99402.41
2023-10-07T02:46:37.207Z,99401.50
2023-10-07T02:49:07.006Z,99397.50
2023-10-07T02:51:35.083Z,99401.41
2023-10-07T02:54:21.716Z,99397.41
2023-10-07T02:56:56.645Z,99391.34
2023-10-07T02:59:31.004Z,99399.84
2023-10-07T03:02:14.515Z,99397.91
2023-10-07T03:04:45.237Z,99388.91
2023-10-07T03:07:15.440Z,99394.75
2023-10-07T03:09:54.071Z,99393.25
2023-10-07T03:12:29.012Z,99401.50
2023-10-07T03:15:16.066Z,99395.81
2023-10-07T03:17:47.337Z,99396.25
2023-10-07T03:20:23.086Z,99390.97
2023-10-07T03:23:08.291Z,99403.06
2023-10-07T03:25:55.190Z,99411.94
2023-10-07T03:28:52.906Z,99406.47
2023-10-07T03:31:21.448Z,99409.06
2023-10-07T03:33:59.475Z,99407.59
2023-10-07T03:36:41.995Z,99408.25
2023-10-07T03:39:10.586Z,99406.75
2023-10-07T03:41:42.673Z,99412.59
2023-10-07T03:44:09.502Z,99416.34
2023-10-07T03:46:36.589Z,99411.44
2023-10-07T03:49:07.813Z,99415.19
2023-10-07T03:51:36.366Z,99418.88
2023-10-07T03:54:05.261Z,99420.38
2023-10-07T03:56:32.616Z,99419.69
2023-10-07T03:59:01.234Z,99421.63
2023-10-07T04:01:28.378Z,99429.75
2023-10-07T04:04:00.669Z,99434.44
2023-10-07T04:06:35.756Z,99427.41
2023-10-07T04:09:13.089Z,99431.28
2023-10-07T04:11:45.914Z,99440.88
2023-10-07T04:14:28.870Z,99448.50
2023-10-07T04:17:01.411Z,99450.66
2023-10-07T04:19:28.468Z,99437.03
2023-10-07T04:21:56.314Z,99447.13
2023-10-07T04:24:29.887Z,99448.44
2023-10-07T04:27:03.115Z,99450.66
2023-10-07T04:29:31.114Z,99449.59
2023-10-07T04:31:59.221Z,99442.31
2023-10-07T04:34:34.445Z,99434.69
2023-10-07T04:37:03.727Z,99429.66
2023-10-07T04:40:00.793Z,99432.47
2023-10-07T04:42:48.051Z,99440.16
2023-10-07T04:45:37.844Z,99453.44
2023-10-07T04:48:25.678Z,99457.19
2023-10-07T04:51:04.958Z,99460.72
2023-10-07T04:53:41.677Z,99472.91
2023-10-07T04:56:10.354Z,99480.31
2023-10-07T04:58:41.799Z,99476.81
2023-10-07T05:01:31.837Z,99488.63
2023-10-07T05:03:59.928Z,99491.94
2023-10-07T05:06:26.882Z,99491.22
2023-10-07T05:08:54.239Z,99476.44
2023-10-07T05:11:20.771Z,99470.44
2023-10-07T05:13:48.318Z,99480.09
2023-10-07T05:16:16.253Z,99482.31
2023-10-07T05:18:43.397Z,99479.50
2023-10-07T05:21:10.108Z,99475.03
2023-10-07T05:23:38.200Z,99476.06
2023-10-07T05:26:05.032Z,99472.00
2023-10-07T05:28:34.824Z,99474.53
2023-10-07T05:31:04.455Z,99481.84
2023-10-07T05:33:35.394Z,99482.53
2023-10-07T05:36:15.794Z,99489.22
2023-10-07T05:38:45.539Z,99495.78
2023-10-07T05:41:16.212Z,99489.59
2023-10-07T05:43:45.831Z,99500.31
2023-10-07T05:46:12.860Z,99493.03
2023-10-07T05:48:41.227Z,99472.91
2023-10-07T05:51:09.647Z,99469.50
2023-10-07T05:53:39.957Z,99476.53
2023-10-07T05:56:07.865Z,99469.00
2023-10-07T05:58:38.698Z,99486.81
2023-10-07T06:01:06.570Z,99490.03
2023-10-07T06:03:33.941Z,99487.44
2023-10-07T06:06:01.059Z,99484.72
2023-10-07T06:08:28.870Z,99498.44
2023-10-07T06:10:58.953Z,99490.81
2023-10-07T06:13:27.591Z,99493.69
2023-10-07T06:15:57.254Z,99498.09
2023-10-07T06:18:24.709Z,99502.09
2023-10-07T06:20:52.707Z,99489.56
2023-10-07T06:23:20.557Z,99492.63
2023-10-07T06:25:52.363Z,99496.19
2023-10-07T06:28:29.095Z,99503.81
2023-10-07T06:31:19.078Z,99504.22
2023-10-07T06:34:00.668Z,99505.91
2023-10-07T06:36:28.640Z,99510.22
2023-10-07T06:38:59.923Z,99515.03
2023-10-07T06:41:33.123Z,99521.06
2023-10-07T06:44:10.757Z,99532.22
2023-10-07T06:46:45.396Z,99528.94
2023-10-07T06:49:19.542Z,99528.22
2023-10-07T06:51:54.492Z,99534.84
2023-10-07T06:54:36.445Z,99532.06
2023-10-07T06:57:05.828Z,99536.78
2023-10-07T06:59:32.427Z,99542.28
2023-10-07T07:02:07.123Z,99546.34
2023-10-07T07:04:36.793Z,99547.31
2023-10-07T07:07:13.034Z,99533.06
2023-10-07T07:09:46.937Z,99538.88
2023-10-07T07:12:18.580Z,99526.97
2023-10-07T07:14:52.932Z,99527.97
2023-10-07T07:17:31.754Z,99530.91
2023-10-07T07:20:10.410Z,99521.44
2023-10-07T07:22:38.618Z,99530.91
2023-10-07T07:25:11.692Z,99534.88
2023-10-07T07:27:39.208Z,99537.03
2023-10-07T07:30:06.442Z,99541.16
2023-10-07T07:32:34.496Z,99542.91
2023-10-07T07:35:04.109Z,99552.44
2023-10-07T07:37:34.270Z,99565.16
2023-10-07T07:40:30.879Z,99568.44
2023-10-07T07:42:57.547Z,99566.88
2023-10-07T07:45:28.145Z,99567.91
2023-10-07T07:47:55.297Z,99564.16
2023-10-07T07:50:23.014Z,99572.31
2023-10-07T07:52:50.867Z,99564.16
2023-10-07T07:55:17.810Z,99564.81
2023-10-07T07:57:45.438Z,99564.63
2023-10-07T08:00:21.521Z,99559.94
2023-10-07T08:02:50.989Z,99557.38
2023-10-07T08:05:17.998Z,99553.88
2023-10-07T08:07:45.350Z,99554.41
2023-10-07T08:10:12.224Z,99549.72
2023-10-07T08:12:38.767Z,99548.56
2023-10-07T08:15:15.630Z,99544.00
2023-10-07T08:17:46.230Z,99546.66
2023-10-07T08:20:13.701Z,99539.53
2023-10-07T08:22:46.665Z,99544.94
2023-10-07T08:25:36.177Z,99555.19
2023-10-07T08:28:19.431Z,99556.19
2023-10-07T08:30:47.886Z,99553.66
2023-10-07T08:33:16.253Z,99552.47
2023-10-07T08:35:49.229Z,99550.50
2023-10-07T08:38:23.946Z,99553.06
2023-10-07T08:41:11.377Z,99566.38
2023-10-07T08:44:02.292Z,99558.44
2023-10-07T08:46:29.491Z,99558.44
2023-10-07T08:49:00.214Z,99562.56
2023-10-07T08:51:30.956Z,99553.84
2023-10-07T08:54:06.543Z,99551.28
2023-10-07T08:56:37.259Z,99537.94
2023-10-07T08:59:14.224Z,99542.81
2023-10-07T09:01:43.873Z,99538.03
2023-10-07T09:04:10.759Z,99540.25
2023-10-07T09:06:46.743Z,99536.59
2023-10-07T09:09:13.664Z,99538.84
2023-10-07T09:11:41.963Z,99523.31
2023-10-07T09:14:09.422Z,99531.22
2023-10-07T09:16:36.364Z,99525.31
2023-10-07T09:19:14.260Z,99526.34
2023-10-07T09:21:45.983Z,99518.75
2023-10-07T09:24:25.121Z,99528.34
2023-10-07T09:26:58.989Z,99521.38
2023-10-07T09:29:27.420Z,99533.97
2023-10-07T09:32:08.949Z,99530.09
2023-10-07T09:34:49.085Z,99522.69
2023-10-07T09:37:23.125Z,99519.91
2023-10-07T09:39:56.807Z,99525.69
2023-10-07T09:42:37.780Z,99522.41
2023-10-07T09:45:09.835Z,99505.75
2023-10-07T09:47:39.741Z,99502.47
2023-10-07T09:50:27.534Z,99499.22
2023-10-07T09:53:18.748Z,99491.84
2023-10-07T09:56:30.176Z,99482.31
2023-10-07T09:59:36.579Z,99488.66
2023-10-07T10:02:44.488Z,99481.59
2023-10-07T10:05:36.464Z,99477.44
2023-10-07T10:08:22.693Z,99476.00
2023-10-07T10:10:51.176Z,99467.84
2023-10-07T10:13:30.239Z,99455.81
2023-10-07T10:16:05.624Z,99453.16
2023-10-07T10:18:41.619Z,99436.47
2023-10-07T10:21:13.887Z,99442.00
2023-10-07T10:23:42.460Z,99433.81
2023-10-07T10:26:26.058Z,99438.72
2023-10-07T10:29:13.582Z,99445.28
2023-10-07T10:31:45.123Z,99442.44
2023-10-07T10:34:16.088Z,99452.38
2023-10-07T10:36:49.968Z,99467.00
2023-10-07T10:42:02.397Z,99479.38
2023-10-07T10:44:36.950Z,99478.22
2023-10-07T10:47:03.538Z,99485.31
2023-10-07T10:49:31.831Z,99485.09
2023-10-07T10:52:01.039Z,99499.06
2023-10-07T10:54:27.632Z,99501.84
2023-10-07T10:57:01.693Z,99492.44
2023-10-07T10:59:38.715Z,99484.03
2023-10-07T11:02:06.531Z,99482.16
2023-10-07T11:04:33.387Z,99479.72
2023-10-07T11:07:01.271Z,99476.47
2023-10-07T11:09:37.053Z,99480.44
2023-10-07T11:12:10.782Z,99483.66
2023-10-07T11:14:39.573Z,99486.78
2023-10-07T11:17:07.138Z,99477.16
2023-10-07T11:19:41.677Z,99474.78
2023-10-07T11:22:08.450Z,99483.44
2023-10-07T11:24:36.357Z,99475.34
2023-10-07T11:27:03.933Z,99474.13
2023-10-07T11:29:33.796Z,99464.50
2023-10-07T11:32:01.830Z,99465.72
2023-10-07T11:34:37.589Z,99463.59
2023-10-07T11:37:15.227Z,99466.91
2023-10-07T11:39:46.074Z,99457.84
2023-10-07T11:42:21.640Z,99460.50
2023-10-07T11:44:57.818Z,99458.84
2023-10-07T11:47:25.862Z,99446.38
2023-10-07T11:49:52.819Z,99454.03
2023-10-07T11:52:22.876Z,99441.31
2023-10-07T11:54:50.158Z,99445.38
2023-10-07T11:57:21.113Z,99442.44
2023-10-07T11:59:47.802Z,99440.22
2023-10-07T12:02:16.219Z,99441.72
2023-10-07T12:04:50.166Z,99436.16
2023-10-07T12:07:18.035Z,99440.00
2023-10-07T12:09:48.369Z,99435.44
2023-10-07T12:12:16.385Z,99441.81
2023-10-07T12:14:43.184Z,99437.97
2023-10-07T12:17:09.980Z,99440.53
2023-10-07T12:19:40.445Z,99437.44
2023-10-07T12:22:08.026Z,99424.44
2023-10-07T12:24:35.778Z,99424.84
2023-10-07T12:27:03.239Z,99424.84
2023-10-07T12:29:30.127Z,99432.84
2023-10-07T12:31:57.638Z,99427.75
2023-10-07T12:34:25.224Z,99434.13
2023-10-07T12:36:55.001Z,99430.94
2023-10-07T12:39:24.421Z,99427.34
2023-10-07T12:41:50.984Z,99425.44
2023-10-07T12:44:18.149Z,99423.16
2023-10-07T12:46:45.097Z,99413.53
2023-10-07T12:49:15.245Z,99405.88
2023-10-07T12:51:43.767Z,99401.19
2023-10-07T12:54:11.272Z,99409.66
2023-10-07T12:56:44.226Z,99408.81
2023-10-07T12:59:19.909Z,99403.09
2023-10-07T13:01:51.687Z,99402.69
2023-10-07T13:04:26.810Z,99397.94
2023-10-07T13:07:02.287Z,99400.34
2023-10-07T13:09:32.975Z,99396.81
2023-10-07T13:12:00.648Z,99397.72
2023-10-07T13:14:30.387Z,99391.28
2023-10-07T13:17:00.774Z,99390.88
2023-10-07T13:19:28.085Z,99395.75
2023-10-07T13:21:56.533Z,99400.00
2023-10-07T13:24:23.626Z,99398.56
2023-10-07T13:26:50.941Z,99396.78
2023-10-07T13:29:17.642Z,99392.75
2023-10-07T13:31:45.065Z,99389.13
2023-10-07T13:34:12.169Z,99384.41
2023-10-07T13:36:40.241Z,99386.13
2023-10-07T13:39:16.829Z,99394.22
2023-10-07T13:41:47.633Z,99389.28
2023-10-07T13:44:16.106Z,99390.22
2023-10-07T13:46:43.495Z,99382.91
2023-10-07T13:49:17.038Z,99383.28
2023-10-07T13:51:46.299Z,99380.06
2023-10-07T13:54:23.738Z,99382.97
2023-10-07T13:56:58.650Z,99379.59
2023-10-07T13:59:26.340Z,99381.97
2023-10-07T14:01:54.032Z,99375.44
2023-10-07T14:04:21.130Z,99379.69
2023-10-07T14:06:55.914Z,99373.13
2023-10-07T14:09:26.550Z,99382.50
2023-10-07T14:11:56.009Z,99375.19
2023-10-07T14:14:23.543Z,99376.78
2023-10-07T14:16:57.003Z,99369.22
2023-10-07T14:19:26.274Z,99378.66
2023-10-07T14:21:53.895Z,99366.03
2023-10-07T14:24:21.671Z,99379.13
2023-10-07T14:26:49.667Z,99377.41
2023-10-07T14:29:16.978Z,99378.44
2023-10-07T14:31:45.213Z,99374.66
2023-10-07T14:34:13.331Z,99378.13
2023-10-07T14:36:41.425Z,99378.72
2023-10-07T14:39:13.955Z,99373.09
2023-10-07T14:41:42.667Z,99376.03
2023-10-07T14:44:10.198Z,99381.50
2023-10-07T14:46:43.642Z,99386.91
2023-10-07T14:49:10.872Z,99380.00
2023-10-07T14:51:38.115Z,99380.38
2023-10-07T14:54:05.160Z,99376.34
2023-10-07T14:56:31.803Z,99376.38
2023-10-07T14:59:09.001Z,99381.81
2023-10-07T15:01:35.932Z,99373.84
2023-10-07T15:04:04.026Z,99382.03
2023-10-07T15:06:34.045Z,99385.31
2023-10-07T15:09:00.623Z,99380.06
2023-10-07T15:11:27.228Z,99381.53
2023-10-07T15:13:54.427Z,99383.81
2023-10-07T15:16:22.194Z,99381.03
2023-10-07T15:18:50.570Z,99391.16
2023-10-07T15:21:18.592Z,99382.38
2023-10-07T15:23:46.668Z,99392.97
2023-10-07T15:26:20.066Z,99386.44
2023-10-07T15:28:48.911Z,99387.09
2023-10-07T15:31:24.660Z,99383.72
2023-10-07T15:33:57.580Z,99380.03
2023-10-07T15:36:25.337Z,99371.63
2023-10-07T15:38:53.179Z,99366.59
2023-10-07T15:41:23.197Z,99362.06
2023-10-07T15:43:50.567Z,99368.44
2023-10-07T15:46:18.432Z,99379.50
2023-10-07T15:48:45.145Z,99373.13
2023-10-07T15:51:12.422Z,99376.88
2023-10-07T15:53:39.088Z,99374.69
2023-10-07T15:56:11.104Z,99382.31
2023-10-07T15:58:43.050Z,99377.19
2023-10-07T16:01:12.188Z,99384.81
2023-10-07T16:03:40.524Z,99383.53
2023-10-07T16:06:08.984Z,99391.34
2023-10-07T16:08:37.851Z,99386.03
2023-10-07T16:11:09.475Z,99387.72
2023-10-07T16:13:36.346Z,99394.19
2023-10-07T16:16:11.915Z,99394.50
2023-10-07T16:18:40.654Z,99391.75
2023-10-07T16:21:15.329Z,99401.13
2023-10-07T16:23:43.542Z,99400.47
2023-10-07T16:26:13.646Z,99402.44
2023-10-07T16:28:42.142Z,99400.66
2023-10-07T16:31:10.253Z,99405.63
2023-10-07T16:33:37.661Z,99408.66
2023-10-07T16:36:05.632Z,99404.06
2023-10-07T16:38:35.130Z,99411.81
2023-10-07T16:41:02.739Z,99405.66
2023-10-07T16:43:34.065Z,99412.28
2023-10-07T16:46:03.389Z,99413.09
2023-10-07T16:48:31.366Z,99416.34
2023-10-07T16:51:00.545Z,99410.97
2023-10-07T16:53:27.828Z,99411.78
2023-10-07T16:55:55.383Z,99426.94
2023-10-07T16:58:22.019Z,99430.53
2023-10-07T17:00:48.638Z,99433.41
2023-10-07T17:03:15.315Z,99435.13
2023-10-07T17:05:42.103Z,99434.25
2023-10-07T17:08:08.777Z,99441.44
2023-10-07T17:10:40.259Z,99439.59
2023-10-07T17:13:07.568Z,99448.25
2023-10-07T17:15:41.899Z,99447.03
2023-10-07T17:18:12.615Z,99449.28
2023-10-07T17:20:40.956Z,99455.06
2023-10-07T17:23:08.686Z,99449.66
2023-10-07T17:25:36.618Z,99451.19
2023-10-07T17:28:04.689Z,99462.22
2023-10-07T17:30:32.434Z,99454.25
2023-10-07T17:33:03.072Z,99453.81
2023-10-07T17:35:30.336Z,99457.75
2023-10-07T17:37:57.613Z,99451.44
2023-10-07T17:40:24.552Z,99456.63
2023-10-07T17:42:52.910Z,99459.34
2023-10-07T17:45:19.631Z,99460.38
2023-10-07T17:47:49.392Z,99455.22
2023-10-07T17:50:19.079Z,99462.28
2023-10-07T17:52:47.441Z,99459.50
2023-10-07T17:55:14.527Z,99464.16
2023-10-07T17:57:42.715Z,99472.41
2023-10-07T18:00:11.345Z,99472.28
2023-10-07T18:02:38.601Z,99484.44
2023-10-07T18:05:06.122Z,99480.38
2023-10-07T18:07:33.542Z,99484.84
2023-10-07T18:10:00.144Z,99488.91
2023-10-07T18:12:30.540Z,99481.88
2023-10-07T18:17:23.821Z,99490.31
2023-10-07T18:19:50.422Z,99487.63
2023-10-07T18:22:17.600Z,99485.66
2023-10-07T18:24:44.527Z,99490.44
2023-10-07T18:27:12.512Z,99492.56
2023-10-07T18:29:40.593Z,99496.88
2023-10-07T18:32:08.143Z,99495.50
2023-10-07T18:34:34.751Z,99491.59
2023-10-07T18:39:27.900Z,99497.16
2023-10-07T18:41:54.512Z,99493.81
2023-10-07T18:44:21.243Z,99498.81
2023-10-07T18:46:48.241Z,99504.81
2023-10-07T18:49:16.426Z,99514.78
2023-10-07T18:51:43.134Z,99505.72
2023-10-07T18:54:09.871Z,99503.16
2023-10-07T18:56:36.912Z,99499.94
2023-10-07T18:59:03.652Z,99501.63
2023-10-07T19:01:30.312Z,99508.81
2023-10-07T19:03:57.018Z,99500.34
2023-10-07T19:06:24.481Z,99502.25
2023-10-07T19:08:51.033Z,99503.38
2023-10-07T19:11:18.992Z,99513.16
2023-10-07T19:13:46.725Z,99506.88
2023-10-07T19:16:16.088Z,99506.81
2023-10-07T19:18:43.903Z,99498.03
2023-10-07T19:21:13.353Z,99501.31
2023-10-07T19:23:41.564Z,99495.38
2023-10-07T19:26:11.896Z,99493.53
2023-10-07T19:28:41.714Z,99496.00
2023-10-07T19:31:13.851Z,99496.28
2023-10-07T19:33:40.729Z,99501.97
2023-10-07T19:36:08.669Z,99493.28
2023-10-07T19:38:37.166Z,99505.53
2023-10-07T19:41:03.990Z,99507.72
2023-10-07T19:43:30.754Z,99508.03
2023-10-07T19:45:57.289Z,99510.22
2023-10-07T19:48:23.906Z,99515.63
2023-10-07T19:50:57.914Z,99511.72
2023-10-07T19:53:24.702Z,99512.47
2023-10-07T19:55:51.276Z,99510.31
2023-10-07T19:58:17.868Z,99508.69
2023-10-07T20:00:45.319Z,99512.72
2023-10-07T20:03:12.046Z,99519.03
2023-10-07T20:05:39.367Z,99512.00
2023-10-07T20:08:08.032Z,99510.38
2023-10-07T20:10:34.825Z,99514.41
2023-10-07T20:13:01.574Z,99519.66
2023-10-07T20:15:28.253Z,99512.03
2023-10-07T20:17:55.247Z,99516.44
2023-10-07T20:20:22.028Z,99524.38
2023-10-07T20:22:48.575Z,99517.03
2023-10-07T20:25:15.050Z,99529.03
2023-10-07T20:27:41.783Z,99526.28
2023-10-07T20:30:08.600Z,99527.88
2023-10-07T20:32:35.884Z,99522.38
2023-10-07T20:35:09.612Z,99526.47
2023-10-07T20:37:36.430Z,99530.50
2023-10-07T20:40:05.587Z,99526.16
2023-10-07T20:42:33.388Z,99528.09
2023-10-07T20:45:00.353Z,99532.25
2023-10-07T20:47:27.016Z,99526.78
2023-10-07T20:49:53.851Z,99529.78
2023-10-07T20:52:20.474Z,99535.56
2023-10-07T20:54:47.009Z,99531.19
2023-10-07T20:57:15.987Z,99534.47
2023-10-07T20:59:43.220Z,99532.50
2023-10-07T21:02:09.862Z,99538.22
2023-10-07T21:04:36.822Z,99529.56
2023-10-07T21:07:04.008Z,99537.13
2023-10-07T21:09:30.640Z,99531.69
2023-10-07T21:11:57.256Z,99531.09
2023-10-07T21:14:23.816Z,99527.28
2023-10-07T21:16:50.341Z,99524.25
2023-10-07T21:19:16.820Z,99525.78
2023-10-07T21:21:46.150Z,99527.63
2023-10-07T21:24:12.678Z,99534.75
2023-10-07T21:26:39.400Z,99529.34
2023-10-07T21:29:08.832Z,99530.19
2023-10-07T21:31:35.541Z,99530.13
2023-10-07T21:34:03.624Z,99532.91
2023-10-07T21:36:30.395Z,99527.81
2023-10-07T21:38:57.122Z,99527.84
2023-10-07T21:41:23.781Z,99532.47
2023-10-07T21:43:50.407Z,99522.66
2023-10-07T21:46:20.213Z,99529.50
2023-10-07T21:48:47.358Z,99532.78
2023-10-07T21:51:16.360Z,99531.16
2023-10-07T21:53:42.964Z,99530.94
2023-10-07T21:56:12.146Z,99527.72
2023-10-07T21:58:38.853Z,99523.72
2023-10-07T22:01:18.815Z,99524.25
2023-10-07T22:03:49.014Z,99528.88
2023-10-07T22:06:15.937Z,99532.47
2023-10-07T22:08:43.371Z,99525.13
2023-10-07T22:11:11.222Z,99521.88
2023-10-07T22:13:38.875Z,99513.69
2023-10-07T22:16:09.083Z,99517.75
2023-10-07T22:18:35.919Z,99513.72
2023-10-07T22:21:04.644Z,99510.41
2023-10-07T22:23:31.654Z,99509.31
2023-10-07T22:25:58.467Z,99513.63
2023-10-07T22:28:27.745Z,99506.56
2023-10-07T22:30:55.101Z,99509.31
2023-10-07T22:33:23.393Z,99506.28
2023-10-07T22:35:50.800Z,99512.75
2023-10-07T22:38:19.285Z,99506.25
2023-10-07T22:41:14.068Z,99509.81
2023-10-07T22:43:40.643Z,99507.63
2023-10-07T22:46:08.858Z,99504.91
2023-10-07T22:48:36.858Z,99500.53
2023-10-07T22:51:22.553Z,99500.81
2023-10-07T22:54:02.722Z,99500.03
2023-10-07T22:56:32.605Z,99490.47
2023-10-07T22:59:02.916Z,99495.06
2023-10-07T23:01:38.480Z,99499.97
2023-10-07T23:04:16.720Z,99495.50
2023-10-07T23:07:00.962Z,99490.78
2023-10-07T23:09:30.220Z,99492.69
2023-10-07T23:11:56.922Z,99491.16
2023-10-07T23:14:27.101Z,99488.34
2023-10-07T23:16:56.864Z,99484.53
2023-10-07T23:19:25.012Z,99487.25
2023-10-07T23:21:52.436Z,99477.72
2023-10-07T23:24:37.926Z,99475.44
2023-10-07T23:27:07.755Z,99476.06
2023-10-07T23:29:58.837Z,99477.31
2023-10-07T23:32:26.160Z,99477.34
2023-10-07T23:35:00.958Z,99479.50
2023-10-07T23:37:31.448Z,99474.91
2023-10-07T23:40:12.151Z,99478.69
2023-10-07T23:42:38.959Z,99473.78
2023-10-07T23:45:08.626Z,99475.97
2023-10-07T23:47:35.683Z,99481.72
2023-10-07T23:50:02.537Z,99478.94
2023-10-07T23:52:29.161Z,99488.09
2023-10-07T23:54:58.897Z,99484.41
2023-10-07T23:57:31.022Z,99477.16
2023-10-07T23:59:58.772Z,99480.44
